sensor_id;sensor_type;location;lat;lon;timestamp;pressure;altitude;pressure_sealevel;temperature;humidity
9189;BME280;34313;50.780;6.084;2023-03-22T00:02:17;99018.31;;;10.64;99.45
9189;BME280;34313;50.780;6.084;2023-03-22T00:04:47;99031.09;;;10.83;99.22
9189;BME280;34313;50.780;6.084;2023-03-22T00:07:16;99033.50;;;10.73;99.27
9189;BME280;34313;50.780;6.084;2023-03-22T00:09:44;99037.53;;;10.79;99.15
9189;BME280;34313;50.780;6.084;2023-03-22T00:12:10;99037.72;;;10.76;99.05
9189;BME280;34313;50.780;6.084;2023-03-22T00:14:35;99007.81;;;10.50;100.00
9189;BME280;34313;50.780;6.084;2023-03-22T00:17:15;99010.13;;;10.42;100.00
9189;BME280;34313;50.780;6.084;2023-03-22T00:19:46;99017.16;;;10.41;100.00
9189;BME280;34313;50.780;6.084;2023-03-22T00:22:23;98998.41;;;10.18;100.00
9189;BME280;34313;50.780;6.084;2023-03-22T00:25:29;99013.28;;;10.19;100.00
9189;BME280;34313;50.780;6.084;2023-03-22T00:27:55;98986.34;;;10.01;100.00
9189;BME280;34313;50.780;6.084;2023-03-22T00:30:21;98959.06;;;9.75;100.00
9189;BME280;34313;50.780;6.084;2023-03-22T00:32:49;98970.94;;;9.95;100.00
9189;BME280;34313;50.780;6.084;2023-03-22T00:35:15;98976.13;;;9.82;100.00
9189;BME280;34313;50.780;6.084;2023-03-22T00:37:40;98990.13;;;9.83;100.00
9189;BME280;34313;50.780;6.084;2023-03-22T00:40:12;98995.13;;;9.88;100.00
9189;BME280;34313;50.780;6.084;2023-03-22T00:42:39;98966.94;;;9.75;100.00
9189;BME280;34313;50.780;6.084;2023-03-22T00:45:07;98959.41;;;9.69;100.00
9189;BME280;34313;50.780;6.084;2023-03-22T00:50:43;98940.28;;;9.53;100.00
9189;BME280;34313;50.780;6.084;2023-03-22T00:53:11;98975.31;;;9.68;100.00
9189;BME280;34313;50.780;6.084;2023-03-22T00:55:43;98955.50;;;9.62;100.00
9189;BME280;34313;50.780;6.084;2023-03-22T00:58:20;98960.00;;;9.60;100.00
9189;BME280;34313;50.780;6.084;2023-03-22T01:00:51;98970.72;;;9.71;100.00
9189;BME280;34313;50.780;6.084;2023-03-22T01:03:31;98966.28;;;9.72;100.00
9189;BME280;34313;50.780;6.084;2023-03-22T01:06:07;98957.19;;;9.63;100.00
9189;BME280;34313;50.780;6.084;2023-03-22T01:08:48;98941.41;;;9.63;100.00
9189;BME280;34313;50.780;6.084;2023-03-22T01:11:21;98955.97;;;9.69;100.00
9189;BME280;34313;50.780;6.084;2023-03-22T01:13:50;98964.13;;;9.64;100.00
9189;BME280;34313;50.780;6.084;2023-03-22T01:16:24;98939.06;;;9.58;100.00
9189;BME280;34313;50.780;6.084;2023-03-22T01:18:53;98951.56;;;9.55;100.00
9189;BME280;34313;50.780;6.084;2023-03-22T01:21:18;98957.94;;;9.65;100.00
9189;BME280;34313;50.780;6.084;2023-03-22T01:23:47;98916.72;;;9.51;100.00
9189;BME280;34313;50.780;6.084;2023-03-22T01:26:16;98914.50;;;9.45;100.00
9189;BME280;34313;50.780;6.084;2023-03-22T01:28:50;98930.44;;;9.56;100.00
9189;BME280;34313;50.780;6.084;2023-03-22T01:31:16;98900.78;;;9.25;100.00
9189;BME280;34313;50.780;6.084;2023-03-22T01:33:47;98901.34;;;9.31;100.00
9189;BME280;34313;50.780;6.084;2023-03-22T01:36:12;98911.22;;;9.41;100.00
9189;BME280;34313;50.780;6.084;2023-03-22T01:38:43;98918.69;;;9.48;100.00
9189;BME280;34313;50.780;6.084;2023-03-22T01:41:15;98908.56;;;9.41;100.00
9189;BME280;34313;50.780;6.084;2023-03-22T01:43:41;98897.69;;;9.33;100.00
9189;BME280;34313;50.780;6.084;2023-03-22T01:46:10;98886.22;;;9.34;100.00
9189;BME280;34313;50.780;6.084;2023-03-22T01:48:41;98898.63;;;9.32;100.00
9189;BME280;34313;50.780;6.084;2023-03-22T01:51:22;98890.25;;;9.25;100.00
9189;BME280;34313;50.780;6.084;2023-03-22T01:54:00;98909.22;;;9.45;100.00
9189;BME280;34313;50.780;6.084;2023-03-22T01:56:32;98915.41;;;9.44;100.00
9189;BME280;34313;50.780;6.084;2023-03-22T01:58:59;98884.81;;;9.28;100.00
9189;BME280;34313;50.780;6.084;2023-03-22T02:01:28;98876.09;;;9.28;100.00
9189;BME280;34313;50.780;6.084;2023-03-22T02:04:01;98908.25;;;9.46;100.00
9189;BME280;34313;50.780;6.084;2023-03-22T02:06:31;98878.06;;;9.24;100.00
9189;BME280;34313;50.780;6.084;2023-03-22T02:09:00;98849.28;;;9.08;100.00
9189;BME280;34313;50.780;6.084;2023-03-22T02:11:42;98893.91;;;9.37;100.00
9189;BME280;34313;50.780;6.084;2023-03-22T02:14:28;98891.97;;;9.26;100.00
9189;BME280;34313;50.780;6.084;2023-03-22T02:17:11;98887.28;;;9.17;100.00
9189;BME280;34313;50.780;6.084;2023-03-22T02:28:49;98843.28;;;9.06;100.00
9189;BME280;34313;50.780;6.084;2023-03-22T02:37:56;98853.28;;;9.14;100.00
9189;BME280;34313;50.780;6.084;2023-03-22T02:40:33;98862.50;;;9.07;100.00
9189;BME280;34313;50.780;6.084;2023-03-22T02:43:18;98855.09;;;9.14;100.00
9189;BME280;34313;50.780;6.084;2023-03-22T02:45:52;98854.13;;;9.15;100.00
9189;BME280;34313;50.780;6.084;2023-03-22T02:48:43;98831.72;;;8.95;100.00
9189;BME280;34313;50.780;6.084;2023-03-22T02:51:40;98827.31;;;8.95;100.00
9189;BME280;34313;50.780;6.084;2023-03-22T02:54:25;98841.66;;;9.04;100.00
9189;BME280;34313;50.780;6.084;2023-03-22T02:57:16;98850.19;;;9.07;100.00
9189;BME280;34313;50.780;6.084;2023-03-22T02:59:45;98845.59;;;9.11;100.00
9189;BME280;34313;50.780;6.084;2023-03-22T03:02:16;98829.91;;;9.09;100.00
9189;BME280;34313;50.780;6.084;2023-03-22T03:04:50;98821.59;;;8.88;100.00
9189;BME280;34313;50.780;6.084;2023-03-22T03:07:26;98823.00;;;8.94;100.00
9189;BME280;34313;50.780;6.084;2023-03-22T03:09:53;98850.00;;;9.11;100.00
9189;BME280;34313;50.780;6.084;2023-03-22T03:12:26;98841.00;;;9.00;100.00
9189;BME280;34313;50.780;6.084;2023-03-22T03:14:58;98834.72;;;9.03;100.00
9189;BME280;34313;50.780;6.084;2023-03-22T03:17:34;98846.81;;;9.05;100.00
9189;BME280;34313;50.780;6.084;2023-03-22T03:20:35;98821.50;;;8.90;100.00
9189;BME280;34313;50.780;6.084;2023-03-22T03:23:27;98837.38;;;9.03;100.00
9189;BME280;34313;50.780;6.084;2023-03-22T03:26:18;98825.16;;;9.02;100.00
9189;BME280;34313;50.780;6.084;2023-03-22T03:31:49;98837.72;;;8.97;100.00
9189;BME280;34313;50.780;6.084;2023-03-22T03:37:12;98828.81;;;8.85;100.00
9189;BME280;34313;50.780;6.084;2023-03-22T03:39:45;98826.59;;;8.79;100.00
9189;BME280;34313;50.780;6.084;2023-03-22T03:42:24;98822.44;;;8.60;100.00
9189;BME280;34313;50.780;6.084;2023-03-22T03:45:02;98814.19;;;8.66;100.00
9189;BME280;34313;50.780;6.084;2023-03-22T03:47:39;98835.97;;;8.68;100.00
9189;BME280;34313;50.780;6.084;2023-03-22T03:50:06;98832.75;;;8.78;100.00
9189;BME280;34313;50.780;6.084;2023-03-22T03:52:39;98835.88;;;8.70;100.00
9189;BME280;34313;50.780;6.084;2023-03-22T03:55:05;98813.72;;;8.60;100.00
9189;BME280;34313;50.780;6.084;2023-03-22T03:57:31;98819.38;;;8.68;100.00
9189;BME280;34313;50.780;6.084;2023-03-22T03:59:59;98810.84;;;8.64;100.00
9189;BME280;34313;50.780;6.084;2023-03-22T04:02:32;98814.75;;;8.72;100.00
9189;BME280;34313;50.780;6.084;2023-03-22T04:05:01;98783.22;;;8.57;100.00
9189;BME280;34313;50.780;6.084;2023-03-22T04:07:26;98817.66;;;8.81;100.00
9189;BME280;34313;50.780;6.084;2023-03-22T04:09:52;98814.94;;;8.68;100.00
9189;BME280;34313;50.780;6.084;2023-03-22T04:12:20;98796.91;;;8.62;100.00
9189;BME280;34313;50.780;6.084;2023-03-22T04:14:49;98774.25;;;8.47;100.00
9189;BME280;34313;50.780;6.084;2023-03-22T04:17:18;98801.81;;;8.68;100.00
9189;BME280;34313;50.780;6.084;2023-03-22T04:19:49;98798.78;;;8.75;100.00
9189;BME280;34313;50.780;6.084;2023-03-22T04:22:21;98792.03;;;8.85;100.00
9189;BME280;34313;50.780;6.084;2023-03-22T04:24:50;98777.91;;;8.73;100.00
9189;BME280;34313;50.780;6.084;2023-03-22T04:27:17;98786.13;;;8.81;100.00
9189;BME280;34313;50.780;6.084;2023-03-22T04:29:46;98786.78;;;8.85;100.00
9189;BME280;34313;50.780;6.084;2023-03-22T04:32:19;98791.56;;;8.78;100.00
9189;BME280;34313;50.780;6.084;2023-03-22T04:34:55;98781.56;;;8.56;100.00
9189;BME280;34313;50.780;6.084;2023-03-22T04:37:21;98782.56;;;8.54;100.00
9189;BME280;34313;50.780;6.084;2023-03-22T04:39:49;98795.69;;;8.82;100.00
9189;BME280;34313;50.780;6.084;2023-03-22T04:42:23;98782.09;;;8.76;100.00
9189;BME280;34313;50.780;6.084;2023-03-22T04:44:52;98764.94;;;8.70;100.00
9189;BME280;34313;50.780;6.084;2023-03-22T04:47:20;98758.94;;;8.68;100.00
9189;BME280;34313;50.780;6.084;2023-03-22T04:49:46;98794.63;;;8.99;100.00
9189;BME280;34313;50.780;6.084;2023-03-22T04:52:11;98788.72;;;8.96;100.00
9189;BME280;34313;50.780;6.084;2023-03-22T04:54:37;98790.22;;;9.00;100.00
9189;BME280;34313;50.780;6.084;2023-03-22T04:57:08;98784.06;;;8.86;100.00
9189;BME280;34313;50.780;6.084;2023-03-22T04:59:50;98800.28;;;8.93;100.00
9189;BME280;34313;50.780;6.084;2023-03-22T05:02:19;98779.34;;;8.92;100.00
9189;BME280;34313;50.780;6.084;2023-03-22T05:04:51;98783.59;;;8.94;100.00
9189;BME280;34313;50.780;6.084;2023-03-22T05:07:20;98789.09;;;9.04;100.00
9189;BME280;34313;50.780;6.084;2023-03-22T05:09:46;98767.16;;;8.91;100.00
9189;BME280;34313;50.780;6.084;2023-03-22T05:12:20;98793.41;;;9.05;100.00
9189;BME280;34313;50.780;6.084;2023-03-22T05:15:07;98789.50;;;8.98;100.00
9189;BME280;34313;50.780;6.084;2023-03-22T05:17:33;98789.91;;;9.04;100.00
9189;BME280;34313;50.780;6.084;2023-03-22T05:20:04;98783.28;;;8.99;100.00
9189;BME280;34313;50.780;6.084;2023-03-22T05:22:35;98762.84;;;8.89;100.00
9189;BME280;34313;50.780;6.084;2023-03-22T05:25:08;98771.66;;;8.88;100.00
9189;BME280;34313;50.780;6.084;2023-03-22T05:27:37;98788.44;;;9.00;100.00
9189;BME280;34313;50.780;6.084;2023-03-22T05:30:06;98816.19;;;9.19;100.00
9189;BME280;34313;50.780;6.084;2023-03-22T05:32:43;98795.44;;;9.14;100.00
9189;BME280;34313;50.780;6.084;2023-03-22T05:35:14;98775.91;;;9.18;100.00
9189;BME280;34313;50.780;6.084;2023-03-22T05:37:44;98791.53;;;9.34;100.00
9189;BME280;34313;50.780;6.084;2023-03-22T05:40:13;98788.25;;;9.31;100.00
9189;BME280;34313;50.780;6.084;2023-03-22T05:42:53;98772.94;;;9.37;100.00
9189;BME280;34313;50.780;6.084;2023-03-22T05:45:27;98792.84;;;9.41;100.00
9189;BME280;34313;50.780;6.084;2023-03-22T05:47:58;98792.34;;;9.49;100.00
9189;BME280;34313;50.780;6.084;2023-03-22T05:50:27;98792.47;;;9.60;100.00
9189;BME280;34313;50.780;6.084;2023-03-22T05:52:56;98748.25;;;9.40;100.00
9189;BME280;34313;50.780;6.084;2023-03-22T05:55:22;98790.09;;;9.70;100.00
9189;BME280;34313;50.780;6.084;2023-03-22T05:57:47;98753.88;;;9.61;100.00
9189;BME280;34313;50.780;6.084;2023-03-22T06:00:16;98799.28;;;9.90;100.00
9189;BME280;34313;50.780;6.084;2023-03-22T06:02:43;98798.69;;;9.99;100.00
9189;BME280;34313;50.780;6.084;2023-03-22T06:05:09;98769.50;;;9.90;100.00
9189;BME280;34313;50.780;6.084;2023-03-22T06:07:38;98772.22;;;10.01;99.53
9189;BME280;34313;50.780;6.084;2023-03-22T06:10:06;98771.44;;;10.13;98.48
9189;BME280;34313;50.780;6.084;2023-03-22T06:12:33;98790.50;;;10.30;97.18
9189;BME280;34313;50.780;6.084;2023-03-22T06:15:04;98796.63;;;10.43;96.56
9189;BME280;34313;50.780;6.084;2023-03-22T06:17:30;98769.88;;;10.36;95.69
9189;BME280;34313;50.780;6.084;2023-03-22T06:19:59;98754.16;;;10.35;95.07
9189;BME280;34313;50.780;6.084;2023-03-22T06:22:28;98786.59;;;10.61;94.46
9189;BME280;34313;50.780;6.084;2023-03-22T06:25:00;98788.78;;;10.67;94.08
9189;BME280;34313;50.780;6.084;2023-03-22T06:27:33;98796.56;;;10.94;92.97
9189;BME280;34313;50.780;6.084;2023-03-22T06:29:59;98783.50;;;10.93;92.37
9189;BME280;34313;50.780;6.084;2023-03-22T06:32:25;98790.47;;;11.18;90.77
9189;BME280;34313;50.780;6.084;2023-03-22T06:34:57;98774.09;;;11.26;89.73
9189;BME280;34313;50.780;6.084;2023-03-22T06:37:29;98765.13;;;11.28;88.55
9189;BME280;34313;50.780;6.084;2023-03-22T06:39:55;98747.34;;;11.19;88.21
9189;BME280;34313;50.780;6.084;2023-03-22T06:42:26;98752.44;;;11.33;87.57
9189;BME280;34313;50.780;6.084;2023-03-22T06:44:56;98764.84;;;11.44;86.33
9189;BME280;34313;50.780;6.084;2023-03-22T06:47:22;98779.25;;;11.76;85.05
9189;BME280;34313;50.780;6.084;2023-03-22T06:49:53;98782.47;;;12.03;84.44
9189;BME280;34313;50.780;6.084;2023-03-22T06:52:19;98781.09;;;12.44;80.79
9189;BME280;34313;50.780;6.084;2023-03-22T06:54:48;98750.25;;;12.45;79.22
9189;BME280;34313;50.780;6.084;2023-03-22T06:57:21;98780.25;;;12.44;78.81
9189;BME280;34313;50.780;6.084;2023-03-22T06:59:49;98756.88;;;11.93;80.38
9189;BME280;34313;50.780;6.084;2023-03-22T07:02:18;98755.47;;;11.64;81.09
9189;BME280;34313;50.780;6.084;2023-03-22T07:04:47;98769.38;;;11.66;81.48
9189;BME280;34313;50.780;6.084;2023-03-22T07:07:16;98769.47;;;11.65;81.53
9189;BME280;34313;50.780;6.084;2023-03-22T07:09:45;98783.47;;;11.54;82.28
9189;BME280;34313;50.780;6.084;2023-03-22T07:12:10;98779.38;;;11.50;82.76
9189;BME280;34313;50.780;6.084;2023-03-22T07:14:36;98769.09;;;11.58;82.20
9189;BME280;34313;50.780;6.084;2023-03-22T07:17:01;98783.56;;;11.77;81.12
9189;BME280;34313;50.780;6.084;2023-03-22T07:19:27;98759.13;;;11.86;80.15
9189;BME280;34313;50.780;6.084;2023-03-22T07:21:52;98776.84;;;12.08;78.94
9189;BME280;34313;50.780;6.084;2023-03-22T07:24:18;98785.78;;;12.29;78.27
9189;BME280;34313;50.780;6.084;2023-03-22T07:26:43;98783.75;;;12.56;76.49
9189;BME280;34313;50.780;6.084;2023-03-22T07:29:08;98782.53;;;12.94;74.40
9189;BME280;34313;50.780;6.084;2023-03-22T07:31:34;98777.66;;;13.44;72.73
9189;BME280;34313;50.780;6.084;2023-03-22T07:34:02;98786.03;;;13.60;71.08
9189;BME280;34313;50.780;6.084;2023-03-22T07:36:28;98775.69;;;13.57;70.84
9189;BME280;34313;50.780;6.084;2023-03-22T07:38:53;98785.59;;;13.21;71.24
9189;BME280;34313;50.780;6.084;2023-03-22T07:41:18;98784.81;;;13.10;72.32
9189;BME280;34313;50.780;6.084;2023-03-22T07:43:44;98780.38;;;12.88;73.13
9189;BME280;34313;50.780;6.084;2023-03-22T07:46:10;98780.41;;;12.54;74.20
9189;BME280;34313;50.780;6.084;2023-03-22T07:48:36;98788.91;;;12.46;75.44
9189;BME280;34313;50.780;6.084;2023-03-22T07:51:03;98811.75;;;12.47;75.62
9189;BME280;34313;50.780;6.084;2023-03-22T07:53:29;98799.31;;;12.25;75.83
9189;BME280;34313;50.780;6.084;2023-03-22T07:55:54;98801.72;;;12.17;75.56
9189;BME280;34313;50.780;6.084;2023-03-22T07:58:19;98790.06;;;12.08;74.79
9189;BME280;34313;50.780;6.084;2023-03-22T08:00:45;98800.03;;;12.27;74.27
9189;BME280;34313;50.780;6.084;2023-03-22T08:03:13;98808.25;;;12.58;73.04
9189;BME280;34313;50.780;6.084;2023-03-22T08:05:40;98801.56;;;12.76;71.86
9189;BME280;34313;50.780;6.084;2023-03-22T08:08:06;98796.97;;;12.78;70.65
9189;BME280;34313;50.780;6.084;2023-03-22T08:10:31;98800.56;;;12.77;71.00
9189;BME280;34313;50.780;6.084;2023-03-22T08:12:57;98805.13;;;12.98;70.47
9189;BME280;34313;50.780;6.084;2023-03-22T08:15:22;98800.91;;;12.95;70.14
9189;BME280;34313;50.780;6.084;2023-03-22T08:17:48;98805.03;;;12.99;69.70
9189;BME280;34313;50.780;6.084;2023-03-22T08:20:14;98813.06;;;12.86;70.08
9189;BME280;34313;50.780;6.084;2023-03-22T08:22:42;98809.22;;;13.13;69.52
9189;BME280;34313;50.780;6.084;2023-03-22T08:25:08;98794.66;;;14.16;65.44
9189;BME280;34313;50.780;6.084;2023-03-22T08:27:34;98800.00;;;14.68;63.37
9189;BME280;34313;50.780;6.084;2023-03-22T08:29:59;98802.88;;;15.46;60.51
9189;BME280;34313;50.780;6.084;2023-03-22T08:32:25;98800.19;;;16.34;58.34
9189;BME280;34313;50.780;6.084;2023-03-22T08:34:53;98785.13;;;16.24;57.74
9189;BME280;34313;50.780;6.084;2023-03-22T08:37:18;98795.41;;;15.90;57.32
9189;BME280;34313;50.780;6.084;2023-03-22T08:39:45;98804.88;;;16.12;56.79
9189;BME280;34313;50.780;6.084;2023-03-22T08:42:10;98792.34;;;16.42;56.02
9189;BME280;34313;50.780;6.084;2023-03-22T08:44:36;98785.53;;;16.77;54.46
9189;BME280;34313;50.780;6.084;2023-03-22T08:47:01;98768.84;;;18.20;50.68
9189;BME280;34313;50.780;6.084;2023-03-22T08:49:27;98768.69;;;18.22;50.08
9189;BME280;34313;50.780;6.084;2023-03-22T08:51:53;98774.22;;;17.30;51.22
9189;BME280;34313;50.780;6.084;2023-03-22T08:54:18;98792.75;;;16.94;52.68
9189;BME280;34313;50.780;6.084;2023-03-22T08:56:43;98780.38;;;15.50;55.85
9189;BME280;34313;50.780;6.084;2023-03-22T08:59:09;98791.41;;;14.85;58.83
9189;BME280;34313;50.780;6.084;2023-03-22T09:01:35;98787.06;;;14.53;59.80
9189;BME280;34313;50.780;6.084;2023-03-22T09:04:04;98801.31;;;14.31;64.61
9189;BME280;34313;50.780;6.084;2023-03-22T09:06:35;98791.28;;;14.14;65.09
9189;BME280;34313;50.780;6.084;2023-03-22T09:09:01;98789.25;;;13.64;64.14
9189;BME280;34313;50.780;6.084;2023-03-22T09:11:53;98785.59;;;13.44;65.33
9189;BME280;34313;50.780;6.084;2023-03-22T09:14:30;98763.94;;;13.39;65.47
9189;BME280;34313;50.780;6.084;2023-03-22T09:17:11;98800.97;;;13.50;65.62
9189;BME280;34313;50.780;6.084;2023-03-22T09:19:50;98775.75;;;13.35;64.93
9189;BME280;34313;50.780;6.084;2023-03-22T09:22:40;98791.72;;;13.45;64.93
9189;BME280;34313;50.780;6.084;2023-03-22T09:25:29;98787.19;;;13.24;64.67
9189;BME280;34313;50.780;6.084;2023-03-22T09:28:06;98781.09;;;13.01;64.47
9189;BME280;34313;50.780;6.084;2023-03-22T09:36:11;98803.19;;;13.11;66.06
9189;BME280;34313;50.780;6.084;2023-03-22T09:38:59;98757.47;;;13.20;65.19
9189;BME280;34313;50.780;6.084;2023-03-22T09:41:37;98779.41;;;13.55;63.05
9189;BME280;34313;50.780;6.084;2023-03-22T09:47:27;98754.97;;;14.56;58.65
9189;BME280;34313;50.780;6.084;2023-03-22T09:50:37;98765.41;;;14.69;58.05
9189;BME280;34313;50.780;6.084;2023-03-22T09:53:34;98763.38;;;14.92;56.80
9189;BME280;34313;50.780;6.084;2023-03-22T09:56:40;98760.63;;;15.13;55.61
9189;BME280;34313;50.780;6.084;2023-03-22T10:10:14;98774.59;;;15.16;54.86
9189;BME280;34313;50.780;6.084;2023-03-22T10:12:51;98751.88;;;14.82;55.42
9189;BME280;34313;50.780;6.084;2023-03-22T10:15:51;98776.56;;;15.23;54.65
9189;BME280;34313;50.780;6.084;2023-03-22T10:18:23;98760.59;;;14.94;55.46
9189;BME280;34313;50.780;6.084;2023-03-22T10:21:08;98784.50;;;15.13;54.90
9189;BME280;34313;50.780;6.084;2023-03-22T10:26:44;98742.66;;;14.25;56.13
9189;BME280;34313;50.780;6.084;2023-03-22T10:34:45;98759.25;;;14.48;56.76
9189;BME280;34313;50.780;6.084;2023-03-22T10:37:28;98716.53;;;14.41;56.57
9189;BME280;34313;50.780;6.084;2023-03-22T10:40:00;98770.91;;;14.87;56.12
9189;BME280;34313;50.780;6.084;2023-03-22T10:42:34;98741.47;;;14.60;55.68
9189;BME280;34313;50.780;6.084;2023-03-22T10:45:11;98743.03;;;15.22;54.58
9189;BME280;34313;50.780;6.084;2023-03-22T10:47:49;98736.47;;;15.46;53.49
9189;BME280;34313;50.780;6.084;2023-03-22T10:50:35;98752.00;;;15.90;52.59
9189;BME280;34313;50.780;6.084;2023-03-22T10:53:27;98774.53;;;15.76;52.16
9189;BME280;34313;50.780;6.084;2023-03-22T10:55:54;98745.59;;;15.82;52.09
9189;BME280;34313;50.780;6.084;2023-03-22T10:58:22;98761.94;;;15.48;52.77
9189;BME280;34313;50.780;6.084;2023-03-22T11:00:55;98748.91;;;15.26;53.12
9189;BME280;34313;50.780;6.084;2023-03-22T11:03:35;98762.91;;;15.47;53.15
9189;BME280;34313;50.780;6.084;2023-03-22T11:06:13;98740.69;;;15.29;53.64
9189;BME280;34313;50.780;6.084;2023-03-22T11:13:58;98737.75;;;15.52;53.88
9189;BME280;34313;50.780;6.084;2023-03-22T11:16:24;98708.53;;;15.32;53.64
9189;BME280;34313;50.780;6.084;2023-03-22T11:18:50;98760.66;;;15.72;53.44
9189;BME280;34313;50.780;6.084;2023-03-22T11:21:16;98733.31;;;15.81;52.85
9189;BME280;34313;50.780;6.084;2023-03-22T11:23:58;98755.81;;;15.87;53.05
9189;BME280;34313;50.780;6.084;2023-03-22T11:26:31;98760.69;;;16.11;52.35
9189;BME280;34313;50.780;6.084;2023-03-22T11:29:04;98748.53;;;15.99;52.52
9189;BME280;34313;50.780;6.084;2023-03-22T11:31:50;98721.69;;;15.92;52.33
9189;BME280;34313;50.780;6.084;2023-03-22T11:34:17;98732.84;;;15.96;52.55
9189;BME280;34313;50.780;6.084;2023-03-22T11:36:45;98729.94;;;15.79;52.94
9189;BME280;34313;50.780;6.084;2023-03-22T11:39:16;98728.81;;;15.82;52.72
9189;BME280;34313;50.780;6.084;2023-03-22T11:41:43;98712.59;;;15.85;52.76
9189;BME280;34313;50.780;6.084;2023-03-22T11:44:15;98738.56;;;16.11;52.40
9189;BME280;34313;50.780;6.084;2023-03-22T11:46:50;98748.06;;;16.13;52.47
9189;BME280;34313;50.780;6.084;2023-03-22T11:49:19;98720.06;;;16.29;51.96
9189;BME280;34313;50.780;6.084;2023-03-22T11:51:48;98705.41;;;16.42;51.46
9189;BME280;34313;50.780;6.084;2023-03-22T11:54:30;98706.69;;;16.01;52.26
9189;BME280;34313;50.780;6.084;2023-03-22T11:57:01;98730.03;;;16.17;52.01
9189;BME280;34313;50.780;6.084;2023-03-22T11:59:37;98724.63;;;15.89;52.44
9189;BME280;34313;50.780;6.084;2023-03-22T12:02:24;98730.72;;;16.09;52.43
9189;BME280;34313;50.780;6.084;2023-03-22T12:04:56;98705.19;;;15.88;52.97
9189;BME280;34313;50.780;6.084;2023-03-22T12:07:27;98697.06;;;15.80;53.09
9189;BME280;34313;50.780;6.084;2023-03-22T12:10:09;98721.94;;;15.99;53.10
9189;BME280;34313;50.780;6.084;2023-03-22T12:12:59;98717.75;;;15.67;54.10
9189;BME280;34313;50.780;6.084;2023-03-22T12:15:32;98726.41;;;15.49;54.63
9189;BME280;34313;50.780;6.084;2023-03-22T12:18:11;98725.44;;;15.50;55.04
9189;BME280;34313;50.780;6.084;2023-03-22T12:20:52;98700.72;;;15.30;55.28
9189;BME280;34313;50.780;6.084;2023-03-22T12:23:21;98684.34;;;15.16;55.47
9189;BME280;34313;50.780;6.084;2023-03-22T12:26:13;98688.56;;;15.28;55.05
9189;BME280;34313;50.780;6.084;2023-03-22T12:28:56;98707.41;;;15.25;55.26
9189;BME280;34313;50.780;6.084;2023-03-22T12:31:37;98720.28;;;15.39;55.39
9189;BME280;34313;50.780;6.084;2023-03-22T12:34:13;98730.06;;;15.39;55.58
9189;BME280;34313;50.780;6.084;2023-03-22T12:36:55;98696.09;;;15.42;55.49
9189;BME280;34313;50.780;6.084;2023-03-22T12:39:42;98686.03;;;15.26;55.64
9189;BME280;34313;50.780;6.084;2023-03-22T12:44:47;98668.88;;;15.30;54.71
9189;BME280;34313;50.780;6.084;2023-03-22T12:47:40;98703.78;;;15.65;55.21
9189;BME280;34313;50.780;6.084;2023-03-22T12:50:28;98680.97;;;15.72;54.31
9189;BME280;34313;50.780;6.084;2023-03-22T12:52:56;98681.28;;;15.88;54.22
9189;BME280;34313;50.780;6.084;2023-03-22T12:55:32;98694.97;;;15.94;54.04
9189;BME280;34313;50.780;6.084;2023-03-22T12:57:59;98707.53;;;16.39;52.86
9189;BME280;34313;50.780;6.084;2023-03-22T13:00:58;98668.63;;;16.00;52.53
9189;BME280;34313;50.780;6.084;2023-03-22T13:03:37;98686.34;;;16.19;52.59
9189;BME280;34313;50.780;6.084;2023-03-22T13:06:28;98686.34;;;16.19;52.61
9189;BME280;34313;50.780;6.084;2023-03-22T13:09:18;98683.56;;;16.49;52.34
9189;BME280;34313;50.780;6.084;2023-03-22T13:11:45;98658.69;;;16.40;52.37
9189;BME280;34313;50.780;6.084;2023-03-22T13:14:52;98665.34;;;16.54;52.18
9189;BME280;34313;50.780;6.084;2023-03-22T13:16:58;98671.63;;;16.53;52.26
9189;BME280;34313;50.780;6.084;2023-03-22T13:19:33;98680.63;;;16.52;52.58
9189;BME280;34313;50.780;6.084;2023-03-22T13:22:29;98685.56;;;16.74;52.18
9189;BME280;34313;50.780;6.084;2023-03-22T13:27:56;98690.13;;;16.82;52.13
9189;BME280;34313;50.780;6.084;2023-03-22T13:33:27;98663.28;;;16.10;53.88
9189;BME280;34313;50.780;6.084;2023-03-22T13:36:21;98683.47;;;16.03;54.47
9189;BME280;34313;50.780;6.084;2023-03-22T13:38:59;98667.59;;;15.54;55.80
9189;BME280;34313;50.780;6.084;2023-03-22T13:41:34;98683.66;;;15.53;56.26
9189;BME280;34313;50.780;6.084;2023-03-22T13:44:44;98682.13;;;15.21;57.66
9189;BME280;34313;50.780;6.084;2023-03-22T13:47:44;98652.06;;;14.91;57.97
9189;BME280;34313;50.780;6.084;2023-03-22T13:50:34;98662.09;;;14.68;59.08
9189;BME280;34313;50.780;6.084;2023-03-22T13:53:18;98687.25;;;14.83;59.22
9189;BME280;34313;50.780;6.084;2023-03-22T14:01:12;98668.78;;;14.62;60.13
9189;BME280;34313;50.780;6.084;2023-03-22T14:03:45;98678.97;;;14.67;60.35
9189;BME280;34313;50.780;6.084;2023-03-22T14:06:27;98637.59;;;14.54;60.48
9189;BME280;34313;50.780;6.084;2023-03-22T14:09:27;98670.66;;;15.10;59.70
9189;BME280;34313;50.780;6.084;2023-03-22T14:14:34;98645.13;;;15.09;59.08
9189;BME280;34313;50.780;6.084;2023-03-22T14:17:14;98667.59;;;15.25;59.22
9189;BME280;34313;50.780;6.084;2023-03-22T14:19:44;98648.88;;;15.07;59.29
9189;BME280;34313;50.780;6.084;2023-03-22T14:22:30;98656.94;;;14.86;60.03
9189;BME280;34313;50.780;6.084;2023-03-22T14:25:08;98660.84;;;14.91;60.63
9189;BME280;34313;50.780;6.084;2023-03-22T14:27:35;98636.69;;;14.85;59.96
9189;BME280;34313;50.780;6.084;2023-03-22T14:30:02;98644.50;;;14.77;60.81
9189;BME280;34313;50.780;6.084;2023-03-22T14:32:32;98655.31;;;15.04;60.57
9189;BME280;34313;50.780;6.084;2023-03-22T14:35:08;98647.75;;;15.29;59.71
9189;BME280;34313;50.780;6.084;2023-03-22T14:37:41;98616.47;;;15.23;59.07
9189;BME280;34313;50.780;6.084;2023-03-22T14:40:27;98654.25;;;15.74;58.26
9189;BME280;34313;50.780;6.084;2023-03-22T14:43:30;98653.19;;;15.76;57.81
9189;BME280;34313;50.780;6.084;2023-03-22T14:51:23;98618.66;;;15.47;58.33
9189;BME280;34313;50.780;6.084;2023-03-22T14:53:57;98656.25;;;15.42;59.23
9189;BME280;34313;50.780;6.084;2023-03-22T14:56:37;98611.41;;;15.49;58.95
9189;BME280;34313;50.780;6.084;2023-03-22T14:59:04;98634.84;;;15.63;58.74
9189;BME280;34313;50.780;6.084;2023-03-22T15:01:55;98615.97;;;15.66;58.54
9189;BME280;34313;50.780;6.084;2023-03-22T15:04:26;98639.06;;;15.66;58.66